Time;durP1;ratioP1;P1;durP2;ratioP2;P2;SDS_P1;SDS_P2;PMS_P1;PMS_P2;Temp;Humidity;BMP_temperature;BMP_pressure;BME280_temperature;BME280_humidity;BME280_pressure;Samples;Min_cycle;Max_cycle;Signal;HPM_P1;HPM_P2
2021/10/03 00:02:13;;;;;;;20.00;8.87;;;;;;;6.43;100.00;101304.30;1631458;88;21026;-76
2021/10/03 00:04:42;;;;;;;16.23;8.50;;;;;;;6.42;100.00;101303.92;1631368;88;21070;-77
2021/10/03 00:07:10;;;;;;;20.47;9.30;;;;;;;6.43;100.00;101305.65;1631514;88;21042;-77
2021/10/03 00:09:39;;;;;;;17.33;9.03;;;;;;;6.41;100.00;101307.09;1631391;88;21046;-76
2021/10/03 00:12:06;;;;;;;20.50;9.30;;;;;;;6.41;100.00;101303.53;1631469;88;21025;-77
2021/10/03 00:14:33;;;;;;;18.90;9.40;;;;;;;6.40;100.00;101304.03;1631475;88;21007;-76
2021/10/03 00:16:59;;;;;;;22.20;9.30;;;;;;;6.40;100.00;101300.00;1598327;88;21147;-77
2021/10/03 00:19:28;;;;;;;20.07;9.67;;;;;;;6.38;100.00;101303.78;1674410;85;21675;-78
2021/10/03 00:21:55;;;;;;;20.93;9.50;;;;;;;6.35;100.00;101302.66;1686468;85;21086;-77
2021/10/03 00:24:23;;;;;;;19.93;9.20;;;;;;;6.33;100.00;101301.42;1694065;82;21109;-77
2021/10/03 00:26:50;;;;;;;21.37;9.83;;;;;;;6.32;100.00;101294.81;1759367;81;21005;-77
2021/10/03 00:29:17;;;;;;;18.67;9.33;;;;;;;6.30;100.00;101297.61;1738127;81;21041;-77
2021/10/03 00:31:44;;;;;;;22.10;9.63;;;;;;;6.30;100.00;101295.41;1759237;81;21005;-77
2021/10/03 00:34:11;;;;;;;19.07;9.07;;;;;;;6.30;100.00;101291.39;1759428;81;21045;-77
2021/10/03 00:36:38;;;;;;;21.77;9.23;;;;;;;6.30;100.00;101291.39;1759426;81;20983;-77
2021/10/03 00:39:06;;;;;;;23.40;9.93;;;;;;;6.32;100.00;101293.01;1759536;81;21528;-77
2021/10/03 00:41:33;;;;;;;21.27;9.53;;;;;;;6.33;100.00;101295.20;1759181;81;21009;-77
2021/10/03 00:44:00;;;;;;;21.77;10.60;;;;;;;6.33;100.00;101300.08;1738205;81;21022;-76
2021/10/03 00:46:27;;;;;;;19.03;10.23;;;;;;;6.32;100.00;101297.50;1759257;81;21518;-77
2021/10/03 00:48:54;;;;;;;18.60;10.30;;;;;;;6.30;100.00;101295.41;1759190;81;21076;-76
2021/10/03 00:51:20;;;;;;;21.77;10.73;;;;;;;6.26;100.00;101297.47;1759576;81;20982;-76
2021/10/03 00:53:49;;;;;;;23.63;10.50;;;;;;;6.20;100.00;101305.50;1759289;81;20998;-77
2021/10/03 00:56:17;;;;;;;17.83;10.03;;;;;;;6.17;100.00;101308.40;1759308;81;21057;-77
2021/10/03 00:58:44;;;;;;;20.17;10.47;;;;;;;6.14;100.00;101312.64;1738119;81;21004;-77
2021/10/03 01:01:11;;;;;;;21.37;11.43;;;;;;;6.13;100.00;101310.09;1759470;81;21459;-77
2021/10/03 01:03:39;;;;;;;18.90;9.67;;;;;;;6.12;100.00;101307.02;1759163;81;21076;-77
2021/10/03 01:06:07;;;;;;;19.87;10.20;;;;;;;6.10;100.00;101310.31;1759453;81;21029;-77
2021/10/03 01:08:35;;;;;;;19.63;9.73;;;;;;;6.04;100.00;101303.06;1759088;81;21033;-77
2021/10/03 01:11:02;;;;;;;20.83;10.30;;;;;;;6.01;100.00;101309.99;1759432;81;21006;-76
2021/10/03 01:13:31;;;;;;;18.30;9.47;;;;;;;5.98;100.00;101304.83;1759416;81;21536;-77
2021/10/03 01:15:58;;;;;;;20.57;10.13;;;;;;;5.98;100.00;101310.70;1738341;81;21542;-77
2021/10/03 01:18:24;;;;;;;18.90;9.93;;;;;;;5.99;100.00;101307.91;1759541;81;20994;-76
2021/10/03 01:20:51;;;;;;;20.77;10.23;;;;;;;5.99;100.00;101303.88;1759160;81;21041;-78
2021/10/03 01:23:19;;;;;;;18.37;9.27;;;;;;;6.00;100.00;101315.47;1759813;81;21021;-78
2021/10/03 01:25:48;;;;;;;21.47;10.03;;;;;;;5.98;100.00;101312.05;1759245;81;21022;-76
2021/10/03 01:28:16;;;;;;;18.93;9.33;;;;;;;5.97;100.00;101312.53;1759403;81;21005;-76
2021/10/03 01:30:46;;;;;;;20.43;10.27;;;;;;;5.95;100.00;101303.70;1759381;81;21041;-77
2021/10/03 01:33:13;;;;;;;19.57;9.63;;;;;;;5.94;100.00;101311.86;1759711;81;21475;-76
2021/10/03 01:35:40;;;;;;;20.70;9.30;;;;;;;5.93;100.00;101308.80;1759092;81;21500;-76
2021/10/03 01:38:07;;;;;;;18.27;9.07;;;;;;;5.90;100.00;101315.25;1759386;81;21036;-76
2021/10/03 01:40:35;;;;;;;17.70;9.00;;;;;;;5.90;100.00;101309.88;1759079;81;21084;-74
2021/10/03 01:43:02;;;;;;;19.37;9.50;;;;;;;5.89;100.00;101309.00;1759391;81;21001;-74
2021/10/03 01:45:28;;;;;;;22.33;9.13;;;;;;;5.85;100.00;101308.86;1759378;81;21009;-74
2021/10/03 01:48:11;;;;;;;22.27;9.43;;;;;;;5.83;100.00;101309.95;1759349;80;21018;-74
2021/10/03 01:50:43;;;;;;;23.00;9.93;;;;;;;5.80;100.00;101310.16;1759084;81;21013;-73
2021/10/03 01:53:12;;;;;;;19.10;9.23;;;;;;;5.76;100.00;101298.78;1759422;81;21037;-74
2021/10/03 01:55:40;;;;;;;19.00;9.63;;;;;;;5.74;100.00;101307.89;1759299;81;21494;-74
2021/10/03 01:58:07;;;;;;;19.27;9.47;;;;;;;5.70;100.00;101301.89;1759285;81;21001;-74
2021/10/03 02:00:35;;;;;;;23.67;10.27;;;;;;;5.66;100.00;101298.56;1759356;81;21072;-73
2021/10/03 02:03:04;;;;;;;21.30;9.77;;;;;;;5.65;100.00;101302.72;1759423;81;20978;-74
2021/10/03 02:05:36;;;;;;;19.07;10.03;;;;;;;5.65;100.00;101300.89;1759213;81;21021;-74
2021/10/03 02:08:05;;;;;;;20.87;9.90;;;;;;;5.63;100.00;101298.80;1737963;81;21013;-74
2021/10/03 02:10:32;;;;;;;20.03;9.60;;;;;;;5.62;100.00;101303.78;1759254;81;21016;-74
2021/10/03 02:12:59;;;;;;;21.80;9.77;;;;;;;5.61;100.00;101296.72;1759076;81;20970;-74
2021/10/03 02:15:27;;;;;;;17.63;9.20;;;;;;;5.60;100.00;101294.98;1766326;80;21492;-75
2021/10/03 02:17:53;;;;;;;20.23;9.73;;;;;;;5.60;100.00;101293.64;1796495;80;21045;-74
2021/10/03 02:20:20;;;;;;;18.97;9.20;;;;;;;5.58;100.00;101296.92;1794572;80;21601;-74
2021/10/03 02:22:48;;;;;;;21.60;9.67;;;;;;;5.54;100.00;101291.37;1789662;80;21038;-74
2021/10/03 02:25:14;;;;;;;17.33;8.17;;;;;;;5.51;100.00;101299.66;1789336;80;21069;-74
2021/10/03 02:27:41;;;;;;;17.47;8.70;;;;;;;5.48;100.00;101295.36;1789250;80;21034;-74
2021/10/03 02:30:08;;;;;;;21.80;9.07;;;;;;;5.46;100.00;101296.44;1789710;80;21014;-73
2021/10/03 02:32:36;;;;;;;18.87;8.60;;;;;;;5.45;100.00;101294.25;1789319;80;21026;-74
2021/10/03 02:35:05;;;;;;;19.20;8.90;;;;;;;5.45;100.00;101295.59;1789535;80;20970;-74
2021/10/03 02:37:33;;;;;;;16.90;8.27;;;;;;;5.47;100.00;101286.95;1789602;80;21014;-74
2021/10/03 02:39:59;;;;;;;16.60;8.73;;;;;;;5.50;100.00;101285.37;1789453;80;21547;-74
2021/10/03 02:42:27;;;;;;;18.10;8.27;;;;;;;5.57;100.00;101283.61;1789327;80;21026;-73
2021/10/03 02:44:53;;;;;;;22.53;8.27;;;;;;;5.66;100.00;101284.30;1789486;80;21006;-72
2021/10/03 02:47:20;;;;;;;19.97;8.50;;;;;;;5.74;100.00;101295.36;1789635;80;21025;-73
2021/10/03 02:49:47;;;;;;;22.70;9.13;;;;;;;5.81;100.00;101296.63;1789272;80;21056;-75
2021/10/03 02:52:14;;;;;;;18.57;8.40;;;;;;;5.87;100.00;101290.81;1789265;80;21030;-73
2021/10/03 02:54:41;;;;;;;17.37;8.80;;;;;;;5.94;100.00;101296.61;1789146;80;21033;-73
2021/10/03 02:57:08;;;;;;;18.97;8.23;;;;;;;5.98;100.00;101290.06;1789590;80;20958;-74
2021/10/03 02:59:35;;;;;;;18.77;8.53;;;;;;;6.05;100.00;101294.52;1789211;80;21527;-74
2021/10/03 03:02:02;;;;;;;19.07;8.50;;;;;;;6.08;100.00;101291.13;1789569;80;21001;-74
2021/10/03 03:04:29;;;;;;;18.37;8.00;;;;;;;6.14;100.00;101291.65;1789300;80;21061;-73
2021/10/03 03:06:56;;;;;;;21.37;9.47;;;;;;;6.17;100.00;101292.78;1789600;80;20990;-74
2021/10/03 03:09:23;;;;;;;17.90;8.27;;;;;;;6.22;100.00;101288.78;1789240;80;21124;-75
2021/10/03 03:11:50;;;;;;;16.77;8.60;;;;;;;6.26;100.00;101276.83;1789273;80;21088;-74
2021/10/03 03:14:18;;;;;;;17.10;8.17;;;;;;;6.31;100.00;101278.34;1789402;80;21053;-73
2021/10/03 03:16:48;;;;;;;17.70;8.37;;;;;;;6.34;100.00;101283.00;1789074;80;20967;-74
2021/10/03 03:19:14;;;;;;;17.93;8.57;;;;;;;6.35;100.00;101276.64;1789527;80;21014;-74
2021/10/03 03:21:41;;;;;;;20.17;8.80;;;;;;;6.37;100.00;101280.06;1796278;79;21089;-74
2021/10/03 03:24:09;;;;;;;17.27;8.57;;;;;;;6.39;100.00;101278.61;1773590;80;21503;-74
2021/10/03 03:26:35;;;;;;;21.03;8.47;;;;;;;6.40;100.00;101282.53;1800210;80;20978;-74
2021/10/03 03:29:03;;;;;;;21.97;8.50;;;;;;;6.42;100.00;101291.33;1800336;80;20990;-73
2021/10/03 03:31:29;;;;;;;19.47;7.80;;;;;;;6.43;100.00;101288.19;1800153;80;21053;-74
2021/10/03 03:33:57;;;;;;;17.93;7.67;;;;;;;6.44;100.00;101286.70;1799812;80;21049;-75
2021/10/03 03:36:23;;;;;;;15.70;7.67;;;;;;;6.44;100.00;101279.98;1799867;80;21368;-74
2021/10/03 03:38:52;;;;;;;16.13;8.30;;;;;;;6.43;100.00;101282.31;1799993;80;21025;-74
2021/10/03 03:41:19;;;;;;;17.03;7.90;;;;;;;6.41;100.00;101281.58;1799770;80;21531;-74
2021/10/03 03:43:45;;;;;;;16.60;8.00;;;;;;;6.40;100.00;101283.03;1800167;80;21006;-72
2021/10/03 03:46:12;;;;;;;16.70;8.60;;;;;;;6.40;100.00;101290.59;1800151;80;21001;-75
2021/10/03 03:48:38;;;;;;;21.37;9.20;;;;;;;6.40;100.00;101293.77;1800052;80;21057;-74
2021/10/03 03:51:05;;;;;;;21.90;10.43;;;;;;;6.39;100.00;101297.42;1800011;80;21490;-75
2021/10/03 03:53:33;;;;;;;18.90;8.70;;;;;;;6.42;100.00;101306.60;1800169;80;21460;-74
2021/10/03 03:56:00;;;;;;;18.50;8.53;;;;;;;6.47;100.00;101304.44;1800384;80;20995;-74
2021/10/03 03:58:27;;;;;;;17.40;8.93;;;;;;;6.53;100.00;101307.16;1799797;80;21092;-74
2021/10/03 04:00:54;;;;;;;28.17;11.80;;;;;;;6.55;100.00;101299.83;1799806;80;21028;-77
2021/10/03 04:03:20;;;;;;;26.73;12.90;;;;;;;6.55;100.00;101302.05;1800384;80;20998;-77
2021/10/03 04:05:47;;;;;;;33.87;10.60;;;;;;;6.53;100.00;101297.75;1800230;80;21020;-76
2021/10/03 04:08:13;;;;;;;22.20;10.97;;;;;;;6.50;100.00;101300.19;1800292;80;21495;-76
2021/10/03 04:10:40;;;;;;;21.90;11.57;;;;;;;6.48;100.00;101303.48;1800309;80;21025;-77
2021/10/03 04:13:07;;;;;;;20.17;10.57;;;;;;;6.47;100.00;101301.75;1800379;80;21041;-76
2021/10/03 04:15:33;;;;;;;18.47;9.10;;;;;;;6.45;100.00;101307.73;1800057;80;21080;-76
2021/10/03 04:18:02;;;;;;;16.03;7.80;;;;;;;6.45;100.00;101307.23;1800028;80;21112;-77
2021/10/03 04:20:29;;;;;;;17.10;8.53;;;;;;;6.50;100.00;101312.74;1799727;79;21017;-76
2021/10/03 04:22:55;;;;;;;18.87;9.10;;;;;;;6.51;100.00;101314.47;1796320;80;21017;-76
2021/10/03 04:25:22;;;;;;;20.43;10.27;;;;;;;6.52;100.00;101312.17;1796123;80;21479;-77
2021/10/03 04:27:49;;;;;;;21.73;10.10;;;;;;;6.52;100.00;101313.52;1796444;80;21022;-79
2021/10/03 04:30:15;;;;;;;26.70;11.27;;;;;;;6.55;100.00;101315.48;1780187;80;21042;-81
2021/10/03 04:32:42;;;;;;;27.57;13.30;;;;;;;6.59;100.00;101315.63;1796728;80;21010;-81
2021/10/03 04:35:09;;;;;;;22.30;10.00;;;;;;;6.65;100.00;101321.02;1796898;80;21021;-80
2021/10/03 04:37:36;;;;;;;21.93;10.67;;;;;;;6.72;100.00;101320.93;1780467;81;21011;-81
2021/10/03 04:40:06;;;;;;;21.73;9.37;;;;;;;6.80;100.00;101318.54;1796678;80;20986;-81
2021/10/03 04:42:33;;;;;;;19.80;8.97;;;;;;;6.89;100.00;101317.45;1780434;81;21480;-80
2021/10/03 04:44:59;;;;;;;18.00;8.93;;;;;;;6.96;100.00;101312.86;1796902;80;20994;-79
2021/10/03 04:47:26;;;;;;;17.87;8.67;;;;;;;7.04;100.00;101311.77;1797627;80;21005;-81
2021/10/03 04:49:54;;;;;;;18.33;8.30;;;;;;;7.12;100.00;101308.98;1797059;80;20974;-80
2021/10/03 04:52:22;;;;;;;20.37;8.30;;;;;;;7.13;100.00;101305.33;1780298;81;21027;-81
2021/10/03 04:54:49;;;;;;;17.83;8.17;;;;;;;7.12;100.00;101305.83;1796317;80;21049;-80
2021/10/03 04:57:15;;;;;;;19.47;8.97;;;;;;;7.13;100.00;101308.02;1796694;80;20994;-81
2021/10/03 04:59:44;;;;;;;20.73;8.43;;;;;;;7.12;100.00;101313.89;1796422;80;21080;-80
2021/10/03 05:02:11;;;;;;;18.70;7.97;;;;;;;7.13;100.00;101309.36;1796116;80;21116;-82
2021/10/03 05:04:38;;;;;;;17.57;7.67;;;;;;;7.13;100.00;101306.17;1795413;80;21017;-80
2021/10/03 05:07:05;;;;;;;15.20;8.23;;;;;;;7.16;100.00;101303.26;1796389;80;21041;-81
2021/10/03 05:09:32;;;;;;;15.67;8.53;;;;;;;7.18;100.00;101305.83;1780227;81;20999;-81
2021/10/03 05:12:01;;;;;;;17.00;7.97;;;;;;;7.21;100.00;101309.14;1796368;80;21054;-81
2021/10/03 05:14:28;;;;;;;17.83;8.53;;;;;;;7.24;100.00;101310.72;1796312;80;21134;-79
2021/10/03 05:16:56;;;;;;;18.90;8.40;;;;;;;7.27;100.00;101310.50;1796222;80;21025;-82
2021/10/03 05:19:23;;;;;;;15.87;7.80;;;;;;;7.31;100.00;101313.81;1796285;80;21061;-82
2021/10/03 05:21:49;;;;;;;15.43;7.67;;;;;;;7.39;100.00;101320.81;1796515;80;21488;-80
2021/10/03 05:24:16;;;;;;;19.20;7.60;;;;;;;7.46;100.00;101320.70;1796520;80;20982;-79
2021/10/03 05:26:42;;;;;;;15.97;7.30;;;;;;;7.53;100.00;101327.31;1780060;81;20986;-79
2021/10/03 05:29:09;;;;;;;14.67;8.07;;;;;;;7.60;100.00;101327.70;1796275;80;21065;-80
2021/10/03 05:31:37;;;;;;;18.10;8.30;;;;;;;7.69;100.00;101328.81;1796093;80;21602;-79
2021/10/03 05:34:04;;;;;;;16.70;7.57;;;;;;;7.76;100.00;101330.05;1796225;80;21007;-81
2021/10/03 05:36:31;;;;;;;18.10;8.27;;;;;;;7.85;100.00;101328.45;1780265;81;21508;-80
2021/10/03 05:39:00;;;;;;;14.73;7.60;;;;;;;7.92;100.00;101325.14;1796182;80;21096;-81
2021/10/03 05:41:28;;;;;;;43.87;13.37;;;;;;;8.03;100.00;101330.17;1796153;80;21089;-81
2021/10/03 05:43:56;;;;;;;18.00;8.07;;;;;;;8.12;100.00;101328.08;1796144;80;21546;-79
2021/10/03 05:46:23;;;;;;;18.93;8.03;;;;;;;8.20;100.00;101328.79;1796457;80;21017;-74
2021/10/03 05:48:49;;;;;;;41.10;12.37;;;;;;;8.28;100.00;101335.77;1796236;80;21049;-73
2021/10/03 05:51:16;;;;;;;61.07;14.73;;;;;;;8.35;100.00;101328.41;1796110;80;21507;-74
2021/10/03 05:53:43;;;;;;;38.13;10.43;;;;;;;8.46;100.00;101326.70;1795987;80;21025;-74
2021/10/03 05:56:10;;;;;;;52.70;14.30;;;;;;;8.58;100.00;101323.50;1779629;80;21027;-73
2021/10/03 05:58:37;;;;;;;22.73;8.67;;;;;;;8.71;100.00;101322.83;1779738;80;21105;-74
2021/10/03 06:01:04;;;;;;;21.13;8.70;;;;;;;8.83;100.00;101325.01;1779673;80;21521;-74
2021/10/03 06:03:31;;;;;;;34.13;11.60;;;;;;;8.95;100.00;101335.27;1779604;80;21042;-75
2021/10/03 06:05:58;;;;;;;19.13;8.17;;;;;;;9.06;100.00;101319.02;1796258;80;21034;-74
2021/10/03 06:08:24;;;;;;;23.55;8.75;;;;;;;9.17;100.00;101331.13;1795821;80;20974;-75
2021/10/03 06:10:53;;;;;;;16.70;7.12;;;;;;;9.32;100.00;101327.60;1795969;80;21546;-73
2021/10/03 06:13:20;;;;;;;15.95;7.72;;;;;;;9.49;100.00;101328.36;1795990;80;21005;-74
2021/10/03 06:15:47;;;;;;;16.73;7.60;;;;;;;9.64;100.00;101331.56;1795927;80;21519;-74
2021/10/03 06:18:14;;;;;;;17.20;7.30;;;;;;;9.77;100.00;101332.69;1751303;81;21034;-73
2021/10/03 06:20:42;;;;;;;15.27;6.83;;;;;;;9.93;100.00;101334.91;1796062;80;21006;-72
2021/10/03 06:23:09;;;;;;;15.17;6.73;;;;;;;10.11;100.00;101336.97;1799894;79;21573;-81
2021/10/03 06:25:35;;;;;;;13.38;6.62;;;;;;;10.31;100.00;101328.45;1800238;80;21006;-80
2021/10/03 06:28:03;;;;;;;20.10;8.00;;;;;;;10.48;100.00;101323.73;1800290;80;21512;-80
2021/10/03 06:30:31;;;;;;;16.62;7.12;;;;;;;10.66;100.00;101319.00;1799863;80;21029;-79
2021/10/03 06:33:00;;;;;;;16.25;7.17;;;;;;;10.87;100.00;101317.05;1799947;80;21495;-81
2021/10/03 06:35:28;;;;;;;32.35;9.20;;;;;;;11.12;100.00;101312.03;1773139;80;21057;-79
2021/10/03 06:37:56;;;;;;;15.90;6.28;;;;;;;11.42;100.00;101319.62;1800371;80;20974;-82
2021/10/03 06:40:24;;;;;;;19.80;7.10;;;;;;;11.70;100.00;101320.05;1800101;80;21410;-81
2021/10/03 06:42:51;;;;;;;33.33;9.70;;;;;;;11.99;100.00;101315.08;1800154;80;21515;-81
2021/10/03 06:45:17;;;;;;;41.05;10.20;;;;;;;12.28;100.00;101314.92;1800415;80;20997;-80
2021/10/03 06:47:45;;;;;;;72.32;13.38;;;;;;;12.48;100.00;101318.40;1799911;80;21555;-82
2021/10/03 06:50:12;;;;;;;39.05;10.80;;;;;;;12.70;100.00;101317.09;1800300;80;21029;-79
2021/10/03 06:52:38;;;;;;;39.25;11.18;;;;;;;12.91;100.00;101315.95;1800356;80;21052;-83
2021/10/03 06:55:06;;;;;;;45.23;11.00;;;;;;;13.11;100.00;101303.05;1800400;80;21022;-82
2021/10/03 06:57:34;;;;;;;39.98;10.10;;;;;;;13.32;100.00;101303.27;1800200;80;20998;-81
2021/10/03 07:00:03;;;;;;;27.55;7.70;;;;;;;13.61;100.00;101303.78;1799993;80;21538;-80
2021/10/03 07:02:30;;;;;;;64.85;13.93;;;;;;;13.89;100.00;101302.77;1800269;80;21001;-80
2021/10/03 07:04:57;;;;;;;25.77;7.55;;;;;;;14.06;100.00;101300.48;1800128;80;21006;-80
2021/10/03 07:07:23;;;;;;;36.63;9.20;;;;;;;14.20;100.00;101301.70;1800461;80;21006;-82
2021/10/03 07:09:50;;;;;;;56.48;12.73;;;;;;;14.36;100.00;101295.47;1800621;80;21041;-83
2021/10/03 07:12:17;;;;;;;18.92;6.62;;;;;;;14.52;100.00;101293.30;1800509;80;21026;-83
2021/10/03 07:14:44;;;;;;;59.50;13.35;;;;;;;14.65;100.00;101281.98;1800856;80;21029;-86
2021/10/03 07:17:12;;;;;;;78.57;15.15;;;;;;;14.85;100.00;101283.88;1801701;80;21064;-86
2021/10/03 07:19:39;;;;;;;57.60;12.00;;;;;;;15.06;100.00;101275.20;1800484;80;21056;-85
2021/10/03 07:22:08;;;;;;;29.30;6.85;;;;;;;15.40;100.00;101276.36;1799027;80;21050;-82
2021/10/03 07:24:35;;;;;;;34.80;8.03;;;;;;;15.40;100.00;101276.36;1781263;81;21006;-82
2021/10/03 07:27:03;;;;;;;15.58;4.55;;;;;;;15.60;100.00;101281.43;1796850;80;21038;-80
2021/10/03 07:29:33;;;;;;;19.45;5.12;;;;;;;15.88;100.00;101278.67;1796709;80;21010;-80
2021/10/03 07:32:00;;;;;;;42.62;8.98;;;;;;;16.01;100.00;101276.75;1796692;80;21018;-81
2021/10/03 07:34:28;;;;;;;33.48;7.25;;;;;;;16.11;100.00;101271.94;1797029;80;20974;-81
2021/10/03 07:36:56;;;;;;;21.40;5.60;;;;;;;16.16;100.00;101272.75;1780488;81;21103;-86
2021/10/03 07:39:24;;;;;;;27.52;6.33;;;;;;;16.20;100.00;101265.05;1797710;80;21022;-87
2021/10/03 07:41:51;;;;;;;30.30;6.90;;;;;;;16.27;100.00;101261.45;1797455;80;21022;-82
2021/10/03 07:44:18;;;;;;;51.65;11.18;;;;;;;16.43;100.00;101256.91;1796776;80;21617;-82
2021/10/03 07:46:45;;;;;;;34.58;6.85;;;;;;;16.62;100.00;101255.08;1780439;81;20991;-80
2021/10/03 07:49:13;;;;;;;21.62;5.80;;;;;;;16.84;96.96;101252.59;1796412;80;21021;-80
2021/10/03 07:51:40;;;;;;;14.50;4.17;;;;;;;16.86;91.32;101257.34;1796102;80;21516;-83
2021/10/03 07:54:07;;;;;;;24.72;6.15;;;;;;;16.93;86.18;101253.34;1796451;80;21530;-82
2021/10/03 07:56:34;;;;;;;29.70;7.78;;;;;;;16.77;77.22;101252.92;1796078;80;21053;-80
2021/10/03 07:59:01;;;;;;;16.60;4.87;;;;;;;16.46;81.32;101249.20;1796376;80;21494;-79
2021/10/03 08:01:28;;;;;;;22.93;6.80;;;;;;;16.25;84.99;101255.30;1796329;80;21070;-82
2021/10/03 08:03:55;;;;;;;22.42;5.92;;;;;;;16.08;91.84;101260.53;1796636;80;21022;-82
2021/10/03 08:06:22;;;;;;;16.35;4.20;;;;;;;16.02;96.60;101262.58;1779963;81;21030;-85
2021/10/03 08:08:49;;;;;;;21.25;4.92;;;;;;;16.00;90.19;101246.91;1796958;80;21057;-85
2021/10/03 08:11:16;;;;;;;20.37;4.97;;;;;;;16.10;90.81;101246.19;1796918;80;21006;-83
2021/10/03 08:13:43;;;;;;;32.80;7.22;;;;;;;16.29;86.27;101251.73;1796517;80;20997;-83
2021/10/03 08:16:10;;;;;;;71.75;12.60;;;;;;;16.37;82.90;101254.39;1796201;80;21021;-84
2021/10/03 08:18:37;;;;;;;18.15;4.17;;;;;;;16.56;83.63;101252.24;1781279;81;20974;-83
2021/10/03 08:21:04;;;;;;;47.50;9.83;;;;;;;16.96;79.75;101248.88;1796646;80;21542;-83
2021/10/03 08:23:31;;;;;;;33.90;6.95;;;;;;;17.32;72.45;101249.61;1790583;80;21081;-84
2021/10/03 08:25:58;;;;;;;27.48;5.87;;;;;;;17.64;71.90;101253.34;1789579;80;21372;-81
2021/10/03 08:28:25;;;;;;;28.35;6.03;;;;;;;17.91;64.28;101251.53;1788866;80;21108;-82
2021/10/03 08:30:53;;;;;;;50.78;9.60;;;;;;;17.96;60.74;101244.45;1789098;80;21046;-81
2021/10/03 08:33:20;;;;;;;36.23;7.55;;;;;;;17.92;59.78;101247.25;1789833;80;21512;-83
2021/10/03 08:35:48;;;;;;;9.40;3.20;;;;;;;17.90;57.98;101247.09;1789407;80;21006;-80
2021/10/03 08:38:15;;;;;;;31.17;6.50;;;;;;;17.90;58.44;101258.03;1789344;80;21065;-80
2021/10/03 08:40:42;;;;;;;17.30;4.05;;;;;;;17.89;57.94;101240.78;1789752;80;21002;-80
2021/10/03 08:43:09;;;;;;;33.73;7.67;;;;;;;17.72;56.55;101235.14;1763548;80;21030;-79
2021/10/03 08:45:41;;;;;;;80.65;13.55;;;;;;;17.36;56.45;101244.92;1789581;80;21010;-85
2021/10/03 08:48:11;;;;;;;46.88;8.60;;;;;;;16.94;57.07;101244.13;1696098;84;21053;-80
2021/10/03 08:50:38;;;;;;;15.32;4.17;;;;;;;16.63;61.92;101249.96;1667854;86;21073;-82
2021/10/03 08:53:05;;;;;;;14.43;3.80;;;;;;;16.43;64.54;101255.05;1667466;86;21046;-81
2021/10/03 08:55:32;;;;;;;12.53;3.80;;;;;;;16.27;64.08;101251.03;1667455;86;21151;-81
2021/10/03 08:58:00;;;;;;;16.37;3.83;;;;;;;16.06;63.02;101248.91;1667923;86;21034;-78
2021/10/03 09:00:27;;;;;;;14.15;4.53;;;;;;;15.89;65.93;101253.09;1667741;86;21611;-85
2021/10/03 09:03:06;;;;;;;29.25;6.37;;;;;;;15.76;70.04;101248.72;1668335;86;21027;-82
2021/10/03 09:05:46;;;;;;;17.35;5.58;;;;;;;15.62;71.00;101250.26;1667947;86;21575;-82
2021/10/03 09:08:17;;;;;;;11.43;4.42;;;;;;;15.53;74.34;101244.50;1667842;86;21027;-80
2021/10/03 09:10:54;;;;;;;13.83;4.53;;;;;;;15.47;82.35;101243.30;1667612;86;21524;-81
2021/10/03 09:13:34;;;;;;;10.32;3.67;;;;;;;15.47;80.40;101245.17;1667817;86;21007;-79
2021/10/03 09:16:34;;;;;;;12.70;3.52;;;;;;;15.45;77.40;101248.07;1667678;86;21023;-81
2021/10/03 09:19:12;;;;;;;7.80;3.80;;;;;;;15.45;78.62;101245.87;1668540;86;21047;-91
2021/10/03 09:21:41;;;;;;;8.75;3.80;;;;;;;15.52;79.72;101242.26;1669486;84;21034;-88
2021/10/03 09:24:17;;;;;;;10.28;3.87;;;;;;;15.75;79.06;101242.91;1667925;86;21132;-89
2021/10/03 09:27:06;;;;;;;45.23;8.88;;;;;;;16.05;74.87;101245.34;1614953;89;21169;-93
2021/10/03 09:29:36;;;;;;;17.73;4.10;;;;;;;16.18;69.25;101241.19;1614916;89;21034;-89
2021/10/03 09:32:11;;;;;;;15.05;4.90;;;;;;;16.24;70.64;101235.88;1616083;85;21075;-88
2021/10/03 09:34:46;;;;;;;28.67;5.50;;;;;;;16.23;71.68;101233.32;1615880;89;21120;-91
2021/10/03 09:37:22;;;;;;;15.68;4.67;;;;;;;16.33;74.28;101231.22;1581567;91;21044;-90
2021/10/03 09:40:03;;;;;;;49.88;8.65;;;;;;;16.51;70.94;101234.50;1568840;92;21214;-88
2021/10/03 09:42:31;;;;;;;43.15;8.73;;;;;;;16.70;66.50;101224.98;1568660;92;21200;-84
2021/10/03 09:45:09;;;;;;;60.28;12.40;;;;;;;16.83;65.15;101217.57;1568697;91;21146;-86
2021/10/03 09:47:39;;;;;;;25.27;6.45;;;;;;;16.91;64.69;101218.04;1569515;91;21092;-87
2021/10/03 09:50:08;;;;;;;12.53;3.90;;;;;;;17.06;63.70;101213.96;1568705;91;21092;-84
2021/10/03 09:52:38;;;;;;;49.03;9.30;;;;;;;17.21;56.13;101203.91;1569587;91;21044;-84
2021/10/03 09:55:05;;;;;;;37.17;5.62;;;;;;;17.29;56.11;101208.97;1598240;90;21558;-88
2021/10/03 09:57:35;;;;;;;14.15;4.15;;;;;;;17.40;51.92;101212.06;1599684;90;21056;-90
2021/10/03 10:00:02;;;;;;;8.28;3.70;;;;;;;17.50;53.90;101208.23;1578847;90;21230;-86
2021/10/03 10:02:32;;;;;;;5.00;3.10;;;;;;;17.68;53.66;101200.48;1599003;90;21686;-88
2021/10/03 10:05:00;;;;;;;49.98;10.32;;;;;;;17.84;53.77;101198.06;1599168;90;21028;-88
2021/10/03 10:07:27;;;;;;;77.90;14.63;;;;;;;17.95;52.25;101196.75;1598380;90;21135;-85
2021/10/03 10:09:54;;;;;;;51.40;10.25;;;;;;;18.03;50.30;101201.59;1598460;90;21565;-84
2021/10/03 10:12:24;;;;;;;16.95;4.47;;;;;;;18.00;49.50;101195.66;1598200;90;21085;-86
2021/10/03 10:14:59;;;;;;;13.22;4.08;;;;;;;18.11;49.26;101203.36;1614902;88;21149;-89
2021/10/03 10:17:38;;;;;;;24.65;6.28;;;;;;;18.25;49.89;101194.78;1571335;91;21074;-86
2021/10/03 10:20:20;;;;;;;21.55;5.20;;;;;;;18.46;48.12;101198.59;1571180;91;21085;-88
2021/10/03 10:23:01;;;;;;;12.33;3.77;;;;;;;18.49;47.55;101192.20;1599578;86;21101;-89
2021/10/03 10:25:47;;;;;;;7.60;3.40;;;;;;;18.37;46.11;101195.13;1649486;87;21040;-87
